Alamo, Texas
Current Conditions -  °F | °C
As of 10:53 PM on Wednesday 22 Oct 2014 (Local Time) from KMFE Reporting Station
Clear Clear  
Wind Chill: 74°   Ceiling: Unl
Heat Index: 74°   Visibility: 10mi
Dew Point: 68°   Wind: 6mph
Humidity: 82%   Direction: 50°NE
Pressure: 30.05"   Gusts: NA
Location:  26.18°N, 98.12°W
Report Text: KMFE 230353Z AUTO 05005KT 10SM CLR 23/20 A3005 RMK AO2 SLP173 T02330200 TSNO
Loading
Personal Weather Stations






























Interactive Weather Map
Tropical Storm Tracking
New forecast layout! Learn more

10-Day Weather Forecast

Advertisements
Track Severe Weather on mobile